createdAt,value
2023-04-21T00:01:55.410Z,99335.02
2023-04-21T00:04:24.035Z,99334.42
2023-04-21T00:06:53.345Z,99333.13
2023-04-21T00:09:22.508Z,99335.89
2023-04-21T00:11:50.862Z,99329.29
2023-04-21T00:14:19.238Z,99327.43
2023-04-21T00:16:47.477Z,99325.35
2023-04-21T00:19:15.809Z,99323.79
2023-04-21T00:21:43.906Z,99320.08
2023-04-21T00:24:12.368Z,99323.75
2023-04-21T00:26:40.595Z,99321.21
2023-04-21T00:29:08.934Z,99328.29
2023-04-21T00:31:37.164Z,99329.21
2023-04-21T00:34:06.456Z,99327.53
2023-04-21T00:36:34.651Z,99326.16
2023-04-21T00:39:02.904Z,99322.77
2023-04-21T00:41:31.139Z,99321.05
2023-04-21T00:44:07.133Z,99323.67
2023-04-21T00:46:35.910Z,99323.50
2023-04-21T00:49:05.738Z,99321.33
2023-04-21T00:51:34.783Z,99318.03
2023-04-21T00:54:04.485Z,99319.67
2023-04-21T00:56:34.058Z,99316.86
2023-04-21T00:59:03.428Z,99318.02
2023-04-21T01:01:32.677Z,99318.19
2023-04-21T01:04:01.786Z,99316.52
2023-04-21T01:06:32.413Z,99318.41
2023-04-21T01:09:00.995Z,99312.79
2023-04-21T01:11:29.555Z,99309.64
2023-04-21T01:13:57.962Z,99308.27
2023-04-21T01:16:26.989Z,99310.92
2023-04-21T01:18:55.635Z,99311.60
2023-04-21T01:21:24.018Z,99310.01
2023-04-21T01:23:52.229Z,99313.39
2023-04-21T01:26:22.103Z,99313.73
2023-04-21T01:28:50.600Z,99316.33
2023-04-21T01:31:18.974Z,99317.77
2023-04-21T01:33:47.344Z,99317.65
2023-04-21T01:36:17.845Z,99320.45
2023-04-21T01:38:46.277Z,99314.71
2023-04-21T01:41:14.722Z,99314.69
2023-04-21T01:43:42.922Z,99313.05
2023-04-21T01:46:11.554Z,99309.56
2023-04-21T01:48:39.875Z,99309.47
2023-04-21T01:51:08.443Z,99311.63
2023-04-21T01:53:36.619Z,99307.46
2023-04-21T01:56:05.219Z,99308.77
2023-04-21T01:58:33.722Z,99303.45
2023-04-21T02:01:02.173Z,99302.91
2023-04-21T02:03:30.639Z,99303.30
2023-04-21T02:05:59.366Z,99304.15
2023-04-21T02:08:27.607Z,99306.59
2023-04-21T02:10:55.743Z,99304.23
2023-04-21T02:13:24.557Z,99303.84
2023-04-21T02:16:02.460Z,99305.08
2023-04-21T02:18:40.220Z,99299.92
2023-04-21T02:21:08.774Z,99297.52
2023-04-21T02:23:37.300Z,99299.48
2023-04-21T02:26:06.351Z,99298.36
2023-04-21T02:28:36.160Z,99301.43
2023-04-21T02:31:04.490Z,99301.58
2023-04-21T02:33:36.157Z,99301.00
2023-04-21T02:36:05.006Z,99299.23
2023-04-21T02:38:33.370Z,99297.25
2023-04-21T02:41:01.627Z,99298.09
2023-04-21T02:43:29.879Z,99293.89
2023-04-21T02:45:57.942Z,99293.71
2023-04-21T02:48:26.947Z,99294.30
2023-04-21T02:50:55.278Z,99291.98
2023-04-21T02:53:23.488Z,99295.04
2023-04-21T02:55:52.500Z,99296.45
2023-04-21T02:58:21.103Z,99294.46
2023-04-21T03:00:49.430Z,99293.04
2023-04-21T03:03:17.950Z,99292.04
2023-04-21T03:05:46.277Z,99297.29
2023-04-21T03:08:14.679Z,99297.70
2023-04-21T03:10:42.778Z,99301.08
2023-04-21T03:13:11.081Z,99299.55
2023-04-21T03:15:39.344Z,99295.02
2023-04-21T03:18:07.474Z,99296.48
2023-04-21T03:20:35.759Z,99298.02
2023-04-21T03:23:04.259Z,99298.03
2023-04-21T03:25:32.946Z,99301.33
2023-04-21T03:28:01.320Z,99302.80
2023-04-21T03:30:29.872Z,99305.19
2023-04-21T03:32:58.976Z,99305.58
2023-04-21T03:35:27.636Z,99310.23
2023-04-21T03:37:56.037Z,99308.85
2023-04-21T03:40:24.408Z,99304.67
2023-04-21T03:42:52.554Z,99305.77
2023-04-21T03:45:22.812Z,99304.03
2023-04-21T03:47:55.274Z,99305.27
2023-04-21T03:50:24.113Z,99302.98
2023-04-21T03:52:52.416Z,99304.94
2023-04-21T03:55:20.641Z,99306.30
2023-04-21T03:57:49.362Z,99309.59
2023-04-21T04:00:17.663Z,99309.29
2023-04-21T04:02:46.876Z,99305.02
2023-04-21T04:05:16.184Z,99307.74
2023-04-21T04:07:44.855Z,99304.74
2023-04-21T04:10:13.126Z,99300.36
2023-04-21T04:12:41.907Z,99300.60
2023-04-21T04:15:10.186Z,99301.23
2023-04-21T04:17:38.808Z,99298.06
2023-04-21T04:20:08.663Z,99298.10
2023-04-21T04:22:37.269Z,99297.67
2023-04-21T04:25:05.956Z,99303.16
2023-04-21T04:27:34.626Z,99307.70
2023-04-21T04:30:03.370Z,99309.02
2023-04-21T04:32:33.560Z,99308.48
2023-04-21T04:35:02.660Z,99306.93
2023-04-21T04:37:31.821Z,99305.77
2023-04-21T04:40:00.205Z,99306.15
2023-04-21T04:42:29.127Z,99307.52
2023-04-21T04:44:57.361Z,99309.29
2023-04-21T04:47:25.545Z,99305.69
2023-04-21T04:49:54.145Z,99302.30
2023-04-21T04:52:22.727Z,99302.01
2023-04-21T04:54:50.775Z,99299.88
2023-04-21T04:57:19.389Z,99297.30
2023-04-21T04:59:47.490Z,99293.66
2023-04-21T05:02:16.541Z,99293.10
2023-04-21T05:04:45.228Z,99296.08
2023-04-21T05:07:13.547Z,99302.38
2023-04-21T05:09:41.792Z,99305.59
2023-04-21T05:12:10.349Z,99307.20
2023-04-21T05:14:38.536Z,99311.81
2023-04-21T05:17:06.664Z,99311.85
2023-04-21T05:19:38.122Z,99316.94
2023-04-21T05:22:09.159Z,99317.10
2023-04-21T05:24:37.871Z,99317.23
2023-04-21T05:27:05.986Z,99316.91
2023-04-21T05:29:34.433Z,99309.25
2023-04-21T05:32:02.894Z,99303.19
2023-04-21T05:34:31.179Z,99293.73
2023-04-21T05:36:59.261Z,99286.20
2023-04-21T05:39:28.384Z,99276.57
2023-04-21T05:41:56.513Z,99276.58
2023-04-21T05:44:25.513Z,99271.23
2023-04-21T05:46:53.900Z,99266.12
2023-04-21T05:49:22.426Z,99256.19
2023-04-21T05:51:50.622Z,99249.23
2023-04-21T05:54:19.718Z,99238.21
2023-04-21T05:56:48.555Z,99232.27
2023-04-21T05:59:16.817Z,99227.02
2023-04-21T06:01:45.203Z,99220.05
2023-04-21T06:04:13.879Z,99213.95
2023-04-21T06:06:42.698Z,99215.83
2023-04-21T06:09:11.085Z,99215.16
2023-04-21T06:11:39.338Z,99212.05
2023-04-21T06:14:07.538Z,99208.81
2023-04-21T06:16:36.398Z,99214.20
2023-04-21T06:19:04.509Z,99209.01
2023-04-21T06:21:33.298Z,99208.44
2023-04-21T06:24:01.673Z,99198.78
2023-04-21T06:26:30.397Z,99204.09
2023-04-21T06:28:58.566Z,99192.77
2023-04-21T06:31:27.302Z,99181.98
2023-04-21T06:33:55.341Z,99181.99
2023-04-21T06:36:23.497Z,99185.09
2023-04-21T06:38:51.989Z,99180.86
2023-04-21T06:41:20.049Z,99176.48
2023-04-21T06:43:48.297Z,99169.91
2023-04-21T06:46:16.669Z,99163.38
2023-04-21T06:48:44.893Z,99160.38
2023-04-21T06:51:13.087Z,99162.36
2023-04-21T06:53:41.333Z,99160.09
2023-04-21T06:56:09.460Z,99149.44
2023-04-21T06:58:37.554Z,99145.01
2023-04-21T07:01:06.254Z,99145.52
2023-04-21T07:03:34.831Z,99148.96
2023-04-21T07:06:03.249Z,99143.45
2023-04-21T07:08:31.567Z,99136.09
2023-04-21T07:10:59.979Z,99134.29
2023-04-21T07:13:28.214Z,99141.80
2023-04-21T07:15:56.563Z,99141.71
2023-04-21T07:18:24.689Z,99140.38
2023-04-21T07:20:52.986Z,99139.14
2023-04-21T07:23:21.274Z,99138.35
2023-04-21T07:28:28.902Z,99137.05
2023-04-21T07:30:57.113Z,99135.94
2023-04-21T07:33:25.409Z,99139.48
2023-04-21T07:35:53.750Z,99138.16
2023-04-21T07:38:22.042Z,99134.04
2023-04-21T07:40:50.236Z,99133.75
2023-04-21T07:43:20.090Z,99133.56
2023-04-21T07:45:48.397Z,99121.50
2023-04-21T07:48:16.970Z,99125.41
2023-04-21T07:50:45.383Z,99127.44
2023-04-21T07:53:13.635Z,99129.80
2023-04-21T07:55:41.739Z,99131.77
2023-04-21T07:58:10.662Z,99128.38
2023-04-21T08:00:39.074Z,99122.84
2023-04-21T08:03:07.395Z,99128.06
2023-04-21T08:05:40.184Z,99122.18
2023-04-21T08:08:09.485Z,99124.20
2023-04-21T08:10:37.807Z,99118.41
2023-04-21T08:13:06.571Z,99120.46
2023-04-21T08:15:35.137Z,99115.06
2023-04-21T08:18:03.418Z,99115.59
2023-04-21T08:20:31.725Z,99119.14
2023-04-21T08:23:00.113Z,99122.17
2023-04-21T08:25:28.370Z,99123.08
2023-04-21T08:27:56.716Z,99118.23
2023-04-21T08:30:27.014Z,99121.35
2023-04-21T08:32:55.557Z,99123.10
2023-04-21T08:35:24.434Z,99118.50
2023-04-21T08:37:53.574Z,99117.63
2023-04-21T08:40:24.135Z,99117.63
2023-04-21T08:42:52.299Z,99116.10
2023-04-21T08:45:20.769Z,99118.70
2023-04-21T08:47:49.426Z,99128.52
2023-04-21T08:50:17.606Z,99125.72
2023-04-21T08:52:45.910Z,99124.70
2023-04-21T08:55:14.236Z,99124.56
2023-04-21T08:57:42.475Z,99120.80
2023-04-21T09:00:11.246Z,99119.63
2023-04-21T09:03:01.460Z,99127.66
2023-04-21T09:05:32.759Z,99127.55
2023-04-21T09:08:14.823Z,99128.02
2023-04-21T09:10:46.883Z,99122.95
2023-04-21T09:13:15.405Z,99135.75
2023-04-21T09:15:47.929Z,99130.20
2023-04-21T09:18:21.354Z,99131.30
2023-04-21T09:20:51.639Z,99136.55
2023-04-21T09:23:21.268Z,99128.23
2023-04-21T09:25:49.467Z,99122.27
2023-04-21T09:28:17.666Z,99124.35
2023-04-21T09:30:45.842Z,99125.62
2023-04-21T09:33:28.901Z,99124.83
2023-04-21T09:36:01.004Z,99131.22
2023-04-21T09:38:29.591Z,99141.58
2023-04-21T09:40:59.985Z,99141.82
2023-04-21T09:43:28.199Z,99141.56
2023-04-21T09:45:56.343Z,99142.95
2023-04-21T09:48:27.512Z,99141.44
2023-04-21T09:53:27.453Z,99143.12
2023-04-21T09:55:56.997Z,99144.92
2023-04-21T09:58:25.651Z,99142.86
2023-04-21T10:00:53.948Z,99149.29
2023-04-21T10:03:22.402Z,99148.57
2023-04-21T10:05:50.815Z,99151.90
2023-04-21T10:08:18.972Z,99150.65
2023-04-21T10:10:47.916Z,99152.17
2023-04-21T10:13:18.750Z,99159.42
2023-04-21T10:15:46.933Z,99159.70
2023-04-21T10:18:19.977Z,99161.04
2023-04-21T10:21:11.020Z,99161.89
2023-04-21T10:23:43.576Z,99154.97
2023-04-21T10:26:19.025Z,99159.96
2023-04-21T10:28:56.757Z,99164.73
2023-04-21T10:31:34.729Z,99170.28
2023-04-21T10:34:09.198Z,99174.17
2023-04-21T10:36:46.986Z,99173.50
2023-04-21T10:39:36.618Z,99174.38
2023-04-21T10:42:13.898Z,99175.83
2023-04-21T10:44:53.191Z,99176.92
2023-04-21T10:47:28.397Z,99174.73
2023-04-21T10:49:58.176Z,99175.85
2023-04-21T10:52:33.679Z,99175.74
2023-04-21T10:55:01.850Z,99178.52
2023-04-21T10:57:34.595Z,99178.79
2023-04-21T11:00:06.438Z,99189.73
2023-04-21T11:02:39.486Z,99195.30
2023-04-21T11:05:10.287Z,99184.88
2023-04-21T11:07:39.130Z,99187.10
2023-04-21T11:10:08.108Z,99189.52
2023-04-21T11:12:39.562Z,99183.20
2023-04-21T11:15:09.347Z,99181.23
2023-04-21T11:17:43.625Z,99185.23
2023-04-21T11:20:12.171Z,99189.83
2023-04-21T11:22:40.458Z,99186.23
2023-04-21T11:25:17.309Z,99183.39
2023-04-21T11:27:54.136Z,99179.80
2023-04-21T11:30:32.019Z,99179.92
2023-04-21T11:33:00.412Z,99174.92
2023-04-21T11:35:28.554Z,99170.09
2023-04-21T11:37:57.160Z,99170.84
2023-04-21T11:40:25.266Z,99167.27
2023-04-21T11:42:53.872Z,99170.55
2023-04-21T11:45:22.826Z,99170.69
2023-04-21T11:47:51.301Z,99157.13
2023-04-21T11:50:32.064Z,99153.45
2023-04-21T11:53:02.626Z,99155.62
2023-04-21T11:55:30.799Z,99150.48
2023-04-21T11:57:58.994Z,99147.73
2023-04-21T12:00:30.892Z,99147.48
2023-04-21T12:02:59.172Z,99142.97
2023-04-21T12:05:34.883Z,99139.37
2023-04-21T12:08:05.275Z,99138.67
2023-04-21T12:10:34.095Z,99134.52
2023-04-21T12:13:02.245Z,99132.05
2023-04-21T12:15:30.593Z,99122.35
2023-04-21T12:17:58.898Z,99120.08
2023-04-21T12:20:29.316Z,99118.17
2023-04-21T12:22:57.651Z,99117.84
2023-04-21T12:25:26.206Z,99112.02
2023-04-21T12:27:58.772Z,99112.96
2023-04-21T12:30:27.077Z,99111.98
2023-04-21T12:32:55.856Z,99114.59
2023-04-21T12:35:24.246Z,99111.10
2023-04-21T12:37:52.657Z,99101.40
2023-04-21T12:40:21.224Z,99099.58
2023-04-21T12:42:49.604Z,99099.93
2023-04-21T12:45:17.971Z,99097.13
2023-04-21T12:47:47.073Z,99092.18
2023-04-21T12:50:16.272Z,99085.48
2023-04-21T12:52:44.457Z,99080.05
2023-04-21T12:55:13.493Z,99078.48
2023-04-21T12:57:41.989Z,99072.36
2023-04-21T13:00:12.374Z,99070.50
2023-04-21T13:02:41.864Z,99072.22
2023-04-21T13:05:12.134Z,99070.23
2023-04-21T13:07:41.485Z,99070.80
2023-04-21T13:10:10.190Z,99070.29
2023-04-21T13:12:41.621Z,99064.86
2023-04-21T13:15:10.858Z,99062.95
2023-04-21T13:17:39.687Z,99066.95
2023-04-21T13:20:08.426Z,99060.06
2023-04-21T13:22:36.797Z,99062.54
2023-04-21T13:25:05.512Z,99058.72
2023-04-21T13:27:35.098Z,99060.52
2023-04-21T13:30:03.638Z,99058.69
2023-04-21T13:32:32.484Z,99061.13
2023-04-21T13:35:00.867Z,99055.93
2023-04-21T13:37:28.989Z,99054.17
2023-04-21T13:39:57.239Z,99049.67
2023-04-21T13:42:25.701Z,99059.16
2023-04-21T13:44:53.918Z,99052.55
2023-04-21T13:47:22.109Z,99050.33
2023-04-21T13:49:51.695Z,99048.79
2023-04-21T13:52:19.845Z,99049.73
2023-04-21T13:54:48.156Z,99045.65
2023-04-21T13:57:16.482Z,99047.60
2023-04-21T13:59:44.588Z,99042.33
2023-04-21T14:02:13.060Z,99041.28
2023-04-21T14:04:41.943Z,99036.64
2023-04-21T14:07:10.579Z,99037.61
2023-04-21T14:09:38.851Z,99035.06
2023-04-21T14:12:07.365Z,99035.23
2023-04-21T14:14:38.797Z,99031.51
2023-04-21T14:17:07.854Z,99030.83
2023-04-21T14:19:36.759Z,99033.77
2023-04-21T14:22:05.132Z,99031.18
2023-04-21T14:24:34.889Z,99028.63
2023-04-21T14:27:03.127Z,99030.26
2023-04-21T14:29:32.773Z,99026.73
2023-04-21T14:32:27.556Z,99030.66
2023-04-21T14:34:58.821Z,99029.95
2023-04-21T14:37:27.498Z,99025.76
2023-04-21T14:39:55.600Z,99025.42
2023-04-21T14:42:23.899Z,99027.08
2023-04-21T14:44:52.405Z,99028.21
2023-04-21T14:47:21.632Z,99027.70
2023-04-21T14:49:55.219Z,99025.92
2023-04-21T14:52:27.273Z,99027.52
2023-04-21T14:54:55.788Z,99028.42
2023-04-21T14:57:24.242Z,99025.91
2023-04-21T14:59:53.084Z,99028.04
2023-04-21T15:02:22.346Z,99029.80
2023-04-21T15:04:50.948Z,99027.09
2023-04-21T15:07:23.851Z,99027.44
2023-04-21T15:09:55.682Z,99028.14
2023-04-21T15:12:24.085Z,99027.72
2023-04-21T15:14:52.412Z,99025.30
2023-04-21T15:17:20.816Z,99023.19
2023-04-21T15:19:49.123Z,99021.70
2023-04-21T15:22:17.349Z,99024.45
2023-04-21T15:24:46.232Z,99021.61
2023-04-21T15:27:14.374Z,99024.64
2023-04-21T15:29:42.656Z,99027.81
2023-04-21T15:32:11.125Z,99024.73
2023-04-21T15:34:39.689Z,99025.85
2023-04-21T15:37:08.015Z,99029.70
2023-04-21T15:39:36.831Z,99022.48
2023-04-21T15:42:05.512Z,99025.23
2023-04-21T15:44:34.415Z,99025.43
2023-04-21T15:47:03.240Z,99027.64
2023-04-21T15:49:31.636Z,99030.30
2023-04-21T15:52:00.113Z,99040.33
2023-04-21T15:54:28.652Z,99043.90
2023-04-21T15:56:57.725Z,99047.48
2023-04-21T15:59:26.444Z,99043.91
2023-04-21T16:01:57.073Z,99056.09
2023-04-21T16:04:25.624Z,99055.13
2023-04-21T16:06:54.058Z,99056.34
2023-04-21T16:09:22.673Z,99060.20
2023-04-21T16:11:51.548Z,99054.99
2023-04-21T16:14:20.142Z,99053.66
2023-04-21T16:16:48.650Z,99059.84
2023-04-21T16:19:17.710Z,99063.86
2023-04-21T16:21:46.061Z,99060.64
2023-04-21T16:24:15.132Z,99066.13
2023-04-21T16:26:43.450Z,99064.54
2023-04-21T16:29:11.877Z,99067.11
2023-04-21T16:31:40.581Z,99069.79
2023-04-21T16:34:08.845Z,99074.05
2023-04-21T16:36:37.154Z,99083.70
2023-04-21T16:39:06.078Z,99088.56
2023-04-21T16:41:34.929Z,99094.75
2023-04-21T16:44:03.136Z,99097.34
2023-04-21T16:46:31.948Z,99099.64
2023-04-21T16:49:00.366Z,99096.01
2023-04-21T16:51:28.787Z,99089.14
2023-04-21T16:53:57.217Z,99086.31
2023-04-21T16:56:25.643Z,99082.04
2023-04-21T16:58:53.833Z,99081.47
2023-04-21T17:01:22.334Z,99073.44
2023-04-21T17:03:51.128Z,99068.42
2023-04-21T17:06:21.344Z,99072.08
2023-04-21T17:08:49.919Z,99078.84
2023-04-21T17:11:18.158Z,99076.40
2023-04-21T17:13:46.680Z,99067.47
2023-04-21T17:16:15.142Z,99058.33
2023-04-21T17:18:43.526Z,99058.33
2023-04-21T17:21:13.629Z,99062.41
2023-04-21T17:23:42.061Z,99067.10
2023-04-21T17:26:12.410Z,99066.98
2023-04-21T17:28:41.512Z,99060.89
2023-04-21T17:31:15.631Z,99057.13
2023-04-21T17:33:45.243Z,99060.29
2023-04-21T17:36:13.855Z,99068.04
2023-04-21T17:38:43.179Z,99067.90
2023-04-21T17:41:12.626Z,99073.20
2023-04-21T17:43:40.920Z,99076.36
2023-04-21T17:46:09.175Z,99081.11
2023-04-21T17:48:38.977Z,99080.45
2023-04-21T17:51:07.226Z,99081.29
2023-04-21T17:53:36.240Z,99081.45
2023-04-21T17:56:05.726Z,99090.36
2023-04-21T17:58:35.390Z,99096.20
2023-04-21T18:01:04.820Z,99094.17
2023-04-21T18:03:36.945Z,99090.83
2023-04-21T18:06:05.535Z,99093.52
2023-04-21T18:08:34.288Z,99097.31
2023-04-21T18:11:02.476Z,99094.64
2023-04-21T18:13:31.592Z,99101.25
2023-04-21T18:15:59.888Z,99101.54
2023-04-21T18:18:28.517Z,99108.31
2023-04-21T18:20:56.723Z,99107.58
2023-04-21T18:23:26.850Z,99104.83
2023-04-21T18:25:55.188Z,99105.04
2023-04-21T18:28:23.497Z,99107.27
2023-04-21T18:30:53.841Z,99109.64
2023-04-21T18:33:22.041Z,99115.95
2023-04-21T18:35:52.824Z,99113.55
2023-04-21T18:38:21.002Z,99116.11
2023-04-21T18:40:49.156Z,99123.17
2023-04-21T18:43:17.497Z,99122.17
2023-04-21T18:45:46.684Z,99120.39
2023-04-21T18:48:15.011Z,99128.70
2023-04-21T18:50:44.338Z,99131.63
2023-04-21T18:53:12.407Z,99135.09
2023-04-21T18:55:40.756Z,99136.86
2023-04-21T18:58:09.988Z,99137.83
2023-04-21T19:00:39.322Z,99140.32
2023-04-21T19:03:07.836Z,99142.63
2023-04-21T19:05:37.078Z,99140.77
2023-04-21T19:08:06.009Z,99139.84
2023-04-21T19:10:37.539Z,99137.02
2023-04-21T19:13:05.944Z,99136.98
2023-04-21T19:15:35.087Z,99134.13
2023-04-21T19:18:03.797Z,99139.17
2023-04-21T19:20:33.617Z,99141.63
2023-04-21T19:23:01.881Z,99144.40
2023-04-21T19:25:30.898Z,99138.06
2023-04-21T19:27:59.198Z,99140.13
2023-04-21T19:30:27.682Z,99138.85
2023-04-21T19:32:55.925Z,99142.08
2023-04-21T19:35:24.309Z,99153.67
2023-04-21T19:37:52.773Z,99152.31
2023-04-21T19:40:21.024Z,99153.27
2023-04-21T19:44:59.033Z,99151.55
2023-04-21T19:47:27.620Z,99153.56
2023-04-21T19:49:55.841Z,99150.56
2023-04-21T19:52:25.084Z,99149.81
2023-04-21T19:54:53.562Z,99149.42
2023-04-21T19:57:21.720Z,99148.35
2023-04-21T19:59:49.966Z,99148.61
2023-04-21T20:02:19.714Z,99153.98
2023-04-21T20:04:49.244Z,99151.13
2023-04-21T20:07:17.746Z,99153.25
2023-04-21T20:09:46.054Z,99154.79
2023-04-21T20:12:14.861Z,99151.14
2023-04-21T20:14:43.130Z,99143.86
2023-04-21T20:17:11.535Z,99145.92
2023-04-21T20:19:40.802Z,99148.79
2023-04-21T20:22:09.163Z,99148.66
2023-04-21T20:24:37.494Z,99142.82
2023-04-21T20:27:08.634Z,99139.27
2023-04-21T20:29:37.556Z,99134.23
2023-04-21T20:32:06.070Z,99139.31
2023-04-21T20:34:34.468Z,99138.73
2023-04-21T20:37:04.091Z,99141.48
2023-04-21T20:39:32.483Z,99140.46
2023-04-21T20:42:11.944Z,99142.84
2023-04-21T20:44:42.521Z,99141.95
2023-04-21T20:47:11.621Z,99137.92
2023-04-21T20:49:40.496Z,99138.65
2023-04-21T20:52:09.220Z,99139.66
2023-04-21T20:54:38.245Z,99143.36
2023-04-21T20:57:07.641Z,99140.42
2023-04-21T20:59:36.674Z,99139.37
2023-04-21T21:02:05.331Z,99134.14
2023-04-21T21:04:33.888Z,99134.52
2023-04-21T21:07:02.355Z,99135.14
2023-04-21T21:09:31.453Z,99132.83
2023-04-21T21:11:59.833Z,99134.86
2023-04-21T21:14:28.112Z,99139.80
2023-04-21T21:16:56.492Z,99138.48
2023-04-21T21:19:24.796Z,99140.71
2023-04-21T21:21:53.144Z,99139.89
2023-04-21T21:24:21.369Z,99142.14
2023-04-21T21:26:49.613Z,99143.14
2023-04-21T21:29:18.291Z,99139.84
2023-04-21T21:31:46.633Z,99141.04
2023-04-21T21:34:14.924Z,99138.80
2023-04-21T21:36:43.101Z,99136.45
2023-04-21T21:39:11.615Z,99139.03
2023-04-21T21:41:39.935Z,99140.85
2023-04-21T21:44:08.226Z,99139.74
2023-04-21T21:46:36.544Z,99138.13
2023-04-21T21:49:04.944Z,99138.06
2023-04-21T21:51:33.148Z,99140.57
2023-04-21T21:54:01.254Z,99138.64
2023-04-21T21:56:29.622Z,99136.48
2023-04-21T21:58:57.917Z,99130.23
2023-04-21T22:01:26.131Z,99136.43
2023-04-21T22:03:54.457Z,99144.30
2023-04-21T22:06:24.147Z,99142.85
2023-04-21T22:08:53.029Z,99147.25
2023-04-21T22:11:21.330Z,99144.05
2023-04-21T22:13:50.641Z,99146.77
2023-04-21T22:16:20.125Z,99144.86
2023-04-21T22:18:48.536Z,99145.05
2023-04-21T22:21:16.724Z,99145.16
2023-04-21T22:23:45.150Z,99146.26
2023-04-21T22:26:13.230Z,99141.80
2023-04-21T22:28:41.856Z,99142.18
2023-04-21T22:31:10.705Z,99144.16
2023-04-21T22:33:39.113Z,99146.75
2023-04-21T22:36:09.879Z,99152.11
2023-04-21T22:38:39.273Z,99151.83
2023-04-21T22:41:08.183Z,99147.55
2023-04-21T22:43:36.727Z,99147.21
2023-04-21T22:46:05.002Z,99143.95
2023-04-21T22:48:33.804Z,99144.98
2023-04-21T22:51:03.026Z,99142.62
2023-04-21T22:53:31.618Z,99147.94
2023-04-21T22:55:59.950Z,99147.32
2023-04-21T22:58:28.206Z,99146.61
2023-04-21T23:00:56.508Z,99149.64
2023-04-21T23:03:24.705Z,99148.43
2023-04-21T23:05:53.043Z,99144.83
2023-04-21T23:08:21.186Z,99143.30
2023-04-21T23:10:49.563Z,99145.16
2023-04-21T23:13:17.693Z,99147.33
2023-04-21T23:15:45.767Z,99143.88
2023-04-21T23:18:13.907Z,99139.88
2023-04-21T23:20:41.979Z,99144.15
2023-04-21T23:23:10.148Z,99141.77
2023-04-21T23:25:38.353Z,99139.98
2023-04-21T23:28:06.495Z,99141.59
2023-04-21T23:30:34.673Z,99141.70
2023-04-21T23:33:03.176Z,99141.08
2023-04-21T23:35:31.549Z,99141.24
2023-04-21T23:37:59.753Z,99143.14
2023-04-21T23:40:28.018Z,99148.27
2023-04-21T23:42:56.118Z,99140.36
2023-04-21T23:45:24.319Z,99142.59
2023-04-21T23:47:52.599Z,99140.36
2023-04-21T23:50:20.788Z,99143.46
2023-04-21T23:52:49.186Z,99146.23
2023-04-21T23:55:18.587Z,99144.34
2023-04-21T23:57:47.867Z,99143.46
